Accueil
METAR-TAF:

METAR-TAF

Aéroports :

Aérodrome de Samedan-Engadin

Saint-Moritz, Suisse

latitude: 46-32-03N, longitude: 9-53-03E, altitude: 1707 m

Observation

Le bulletin a été fait il y a 13 minutes, à 11:20 UTC
Vent 4 kt de est/nord-est, variant entre nord/nord-est et est
Température 15°C
Humidité 27%
Pression 1028 hPa
Visibilité 10 km ou plus
pas de nuages en-dessous de 1500 mètres et pas de cumulonimbus.

METAR: LSZS 201120Z 07004KT 030V090 CAVOK 15/M04 Q1028 RMK L

Heure: 13:33 (11:33 UTC)

Prévision

Le bulletin a été fait il y a 3 heures et 8 minutes, à 08:25 UTC
Prévision valable du 20 à 09 UTC au 20 à 18 UTC
Vent 3 kt de direction variable
Visibilité 10 km ou plus
pas de nuages en-dessous de 1500 mètres et pas de cumulonimbus.

TAF: LSZS 200825Z 2009/2018 VRB03KT CAVOK TX17/2014Z

Observations et prévisions météorologiques de plus de 4000 aéroports (messages METAR et TAF).

Les stations disponibles sont représentées par des disques jaunes et rouges sur la carte.

Passer la souris dessus pour voir le nom de la station.

Cliquer dessus pour voir les observations et prévisions météorologiques.

Pour changer de carte: cliquez sur les boutons verts avec une croix noire pour zoomer, sur le bouton vert avec un tiret pour effectuer un zoom arrière, ou sur les flèches vertes pour les cartes adjacentes.


METAR-TAF: